sensor_id;sensor_type;location;lat;lon;timestamp;pressure;altitude;pressure_sealevel;temperature;humidity
72855;BME280;60991;51.278;22.550;2023-03-19T00:01:03;99405.47;;;8.93;54.48
72855;BME280;60991;51.278;22.550;2023-03-19T00:02:34;99402.38;;;8.96;54.42
72855;BME280;60991;51.278;22.550;2023-03-19T00:04:05;99403.63;;;8.93;54.22
72855;BME280;60991;51.278;22.550;2023-03-19T00:05:35;99402.59;;;8.94;54.51
72855;BME280;60991;51.278;22.550;2023-03-19T00:07:05;99399.50;;;8.97;53.89
72855;BME280;60991;51.278;22.550;2023-03-19T00:08:35;99410.66;;;8.99;53.95
72855;BME280;60991;51.278;22.550;2023-03-19T00:10:06;99407.00;;;9.00;54.32
72855;BME280;60991;51.278;22.550;2023-03-19T00:11:37;99407.44;;;8.97;54.64
72855;BME280;60991;51.278;22.550;2023-03-19T00:13:07;99402.59;;;8.94;54.61
72855;BME280;60991;51.278;22.550;2023-03-19T00:14:37;99401.56;;;8.95;54.39
72855;BME280;60991;51.278;22.550;2023-03-19T00:16:07;99393.63;;;8.95;54.37
72855;BME280;60991;51.278;22.550;2023-03-19T00:17:37;99404.78;;;8.97;54.31
72855;BME280;60991;51.278;22.550;2023-03-19T00:19:08;99399.50;;;8.97;54.45
72855;BME280;60991;51.278;22.550;2023-03-19T00:20:38;99388.09;;;8.97;53.90
72855;BME280;60991;51.278;22.550;2023-03-19T00:22:08;99385.22;;;8.98;54.11
72855;BME280;60991;51.278;22.550;2023-03-19T00:23:39;99391.31;;;8.99;54.33
72855;BME280;60991;51.278;22.550;2023-03-19T00:25:09;99395.81;;;8.98;54.32
72855;BME280;60991;51.278;22.550;2023-03-19T00:26:39;99394.28;;;8.91;55.22
72855;BME280;60991;51.278;22.550;2023-03-19T00:28:09;99391.09;;;8.89;54.56
72855;BME280;60991;51.278;22.550;2023-03-19T00:29:39;99392.34;;;8.86;54.73
72855;BME280;60991;51.278;22.550;2023-03-19T00:31:12;99388.06;;;8.85;54.83
72855;BME280;60991;51.278;22.550;2023-03-19T00:32:43;99388.22;;;8.90;54.31
72855;BME280;60991;51.278;22.550;2023-03-19T00:34:13;99381.03;;;8.91;55.11
72855;BME280;60991;51.278;22.550;2023-03-19T00:35:43;99392.44;;;8.91;55.07
72855;BME280;60991;51.278;22.550;2023-03-19T00:37:13;99387.97;;;8.92;54.74
72855;BME280;60991;51.278;22.550;2023-03-19T00:38:45;99391.63;;;8.91;54.76
72855;BME280;60991;51.278;22.550;2023-03-19T00:40:15;99374.97;;;8.90;55.03
72855;BME280;60991;51.278;22.550;2023-03-19T00:41:46;99382.66;;;8.92;54.96
72855;BME280;60991;51.278;22.550;2023-03-19T00:43:16;99377.94;;;8.94;54.55
72855;BME280;60991;51.278;22.550;2023-03-19T00:44:46;99378.97;;;8.93;54.60
72855;BME280;60991;51.278;22.550;2023-03-19T00:46:16;99385.31;;;8.92;54.27
72855;BME280;60991;51.278;22.550;2023-03-19T00:47:46;99375.19;;;8.89;54.52
72855;BME280;60991;51.278;22.550;2023-03-19T00:49:17;99377.84;;;8.89;55.10
72855;BME280;60991;51.278;22.550;2023-03-19T00:50:47;99387.25;;;8.85;55.13
72855;BME280;60991;51.278;22.550;2023-03-19T00:52:18;99381.97;;;8.85;54.76
72855;BME280;60991;51.278;22.550;2023-03-19T00:53:48;99376.63;;;8.73;55.27
72855;BME280;60991;51.278;22.550;2023-03-19T00:55:18;99378.81;;;8.76;54.78
72855;BME280;60991;51.278;22.550;2023-03-19T00:56:48;99373.75;;;8.75;55.03
72855;BME280;60991;51.278;22.550;2023-03-19T00:58:19;99373.16;;;8.73;55.50
72855;BME280;60991;51.278;22.550;2023-03-19T00:59:49;99376.88;;;8.72;55.19
72855;BME280;60991;51.278;22.550;2023-03-19T01:01:19;99377.09;;;8.70;55.52
72855;BME280;60991;51.278;22.550;2023-03-19T01:02:49;99369.38;;;8.68;55.14
72855;BME280;60991;51.278;22.550;2023-03-19T01:04:20;99370.53;;;8.73;55.40
72855;BME280;60991;51.278;22.550;2023-03-19T01:05:50;99370.19;;;8.69;55.33
72855;BME280;60991;51.278;22.550;2023-03-19T01:07:20;99365.56;;;8.64;55.68
72855;BME280;60991;51.278;22.550;2023-03-19T01:08:50;99372.69;;;8.64;55.10
72855;BME280;60991;51.278;22.550;2023-03-19T01:10:22;99369.47;;;8.62;55.58
72855;BME280;60991;51.278;22.550;2023-03-19T01:11:53;99365.19;;;8.61;55.33
72855;BME280;60991;51.278;22.550;2023-03-19T01:13:23;99363.81;;;8.58;56.06
72855;BME280;60991;51.278;22.550;2023-03-19T01:14:53;99366.78;;;8.50;55.88
72855;BME280;60991;51.278;22.550;2023-03-19T01:16:26;99365.63;;;8.46;55.59
72855;BME280;60991;51.278;22.550;2023-03-19T01:17:56;99365.84;;;8.45;55.88
72855;BME280;60991;51.278;22.550;2023-03-19T01:19:26;99365.03;;;8.44;55.94
72855;BME280;60991;51.278;22.550;2023-03-19T01:20:56;99363.41;;;8.43;56.41
72855;BME280;60991;51.278;22.550;2023-03-19T01:22:27;99363.19;;;8.45;55.88
72855;BME280;60991;51.278;22.550;2023-03-19T01:23:57;99366.06;;;8.43;56.16
72855;BME280;60991;51.278;22.550;2023-03-19T01:25:27;99368.47;;;8.45;55.89
72855;BME280;60991;51.278;22.550;2023-03-19T01:26:58;99362.81;;;8.41;55.86
72855;BME280;60991;51.278;22.550;2023-03-19T01:28:29;99369.72;;;8.42;56.42
72855;BME280;60991;51.278;22.550;2023-03-19T01:29:59;99363.25;;;8.38;56.15
72855;BME280;60991;51.278;22.550;2023-03-19T01:31:29;99364.88;;;8.39;56.45
72855;BME280;60991;51.278;22.550;2023-03-19T01:33:00;99370.16;;;8.39;55.99
72855;BME280;60991;51.278;22.550;2023-03-19T01:34:30;99370.97;;;8.40;56.02
72855;BME280;60991;51.278;22.550;2023-03-19T01:36:00;99373.63;;;8.40;56.24
72855;BME280;60991;51.278;22.550;2023-03-19T01:37:31;99375.69;;;8.38;56.44
72855;BME280;60991;51.278;22.550;2023-03-19T01:39:01;99373.25;;;8.36;56.50
72855;BME280;60991;51.278;22.550;2023-03-19T01:40:31;99374.53;;;8.33;56.27
72855;BME280;60991;51.278;22.550;2023-03-19T01:42:02;99378.81;;;8.35;56.54
72855;BME280;60991;51.278;22.550;2023-03-19T01:43:33;99382.00;;;8.37;56.12
72855;BME280;60991;51.278;22.550;2023-03-19T01:45:26;99389.38;;;8.35;56.52
72855;BME280;60991;51.278;22.550;2023-03-19T01:46:54;99382.81;;;8.37;56.86
72855;BME280;60991;51.278;22.550;2023-03-19T01:50:20;99378.31;;;8.38;57.02
72855;BME280;60991;51.278;22.550;2023-03-19T01:51:54;99374.06;;;8.37;56.44
72855;BME280;60991;51.278;22.550;2023-03-19T01:53:29;99381.19;;;8.36;56.36
72855;BME280;60991;51.278;22.550;2023-03-19T01:55:02;99384.66;;;8.37;55.97
72855;BME280;60991;51.278;22.550;2023-03-19T01:56:36;99376.16;;;8.35;56.68
72855;BME280;60991;51.278;22.550;2023-03-19T01:58:08;99380.63;;;8.34;56.47
72855;BME280;60991;51.278;22.550;2023-03-19T01:59:41;99394.66;;;8.35;56.49
72855;BME280;60991;51.278;22.550;2023-03-19T02:01:13;99388.78;;;8.32;56.74
72855;BME280;60991;51.278;22.550;2023-03-19T02:02:46;99392.44;;;8.31;56.33
72855;BME280;60991;51.278;22.550;2023-03-19T02:04:18;99393.69;;;8.29;56.36
72855;BME280;60991;51.278;22.550;2023-03-19T02:05:49;99393.09;;;8.27;57.26
72855;BME280;60991;51.278;22.550;2023-03-19T02:07:20;99393.53;;;8.24;57.37
72855;BME280;60991;51.278;22.550;2023-03-19T02:08:51;99392.94;;;8.22;56.39
72855;BME280;60991;51.278;22.550;2023-03-19T02:10:22;99393.38;;;8.19;56.76
72855;BME280;60991;51.278;22.550;2023-03-19T02:11:53;99390.72;;;8.19;57.03
72855;BME280;60991;51.278;22.550;2023-03-19T02:13:24;99387.50;;;8.17;56.82
72855;BME280;60991;51.278;22.550;2023-03-19T02:14:54;99389.59;;;8.15;56.88
72855;BME280;60991;51.278;22.550;2023-03-19T02:16:24;99385.75;;;8.11;57.17
72855;BME280;60991;51.278;22.550;2023-03-19T02:17:54;99397.38;;;8.10;57.25
72855;BME280;60991;51.278;22.550;2023-03-19T02:19:39;99399.41;;;8.08;57.10
72855;BME280;60991;51.278;22.550;2023-03-19T02:21:15;99401.84;;;8.09;56.47
72855;BME280;60991;51.278;22.550;2023-03-19T02:23:12;99395.16;;;8.07;56.59
72855;BME280;60991;51.278;22.550;2023-03-19T02:26:26;99402.06;;;8.08;56.89
72855;BME280;60991;51.278;22.550;2023-03-19T02:27:59;99401.91;;;8.03;57.11
72855;BME280;60991;51.278;22.550;2023-03-19T02:29:30;99406.38;;;8.02;57.37
72855;BME280;60991;51.278;22.550;2023-03-19T02:31:00;99402.13;;;8.01;57.23
72855;BME280;60991;51.278;22.550;2023-03-19T02:32:30;99404.75;;;8.01;56.73
72855;BME280;60991;51.278;22.550;2023-03-19T02:34:04;99407.84;;;7.98;57.25
72855;BME280;60991;51.278;22.550;2023-03-19T02:35:36;99407.50;;;7.94;57.60
72855;BME280;60991;51.278;22.550;2023-03-19T02:37:11;99411.38;;;7.92;57.57
72855;BME280;60991;51.278;22.550;2023-03-19T02:38:45;99409.75;;;7.91;57.29
72855;BME280;60991;51.278;22.550;2023-03-19T02:40:25;99408.38;;;7.88;57.03
72855;BME280;60991;51.278;22.550;2023-03-19T02:41:59;99412.63;;;7.89;57.56
72855;BME280;60991;51.278;22.550;2023-03-19T02:43:32;99410.41;;;7.86;57.11
72855;BME280;60991;51.278;22.550;2023-03-19T02:45:03;99414.50;;;7.82;57.45
72855;BME280;60991;51.278;22.550;2023-03-19T02:46:33;99410.25;;;7.81;57.68
72855;BME280;60991;51.278;22.550;2023-03-19T02:48:04;99416.34;;;7.82;57.77
72855;BME280;60991;51.278;22.550;2023-03-19T02:49:34;99413.91;;;7.80;57.43
72855;BME280;60991;51.278;22.550;2023-03-19T02:51:04;99419.44;;;7.79;57.18
72855;BME280;60991;51.278;22.550;2023-03-19T02:52:35;99417.03;;;7.77;57.63
72855;BME280;60991;51.278;22.550;2023-03-19T02:54:05;99411.16;;;7.75;57.33
72855;BME280;60991;51.278;22.550;2023-03-19T02:55:35;99407.91;;;7.73;57.70
72855;BME280;60991;51.278;22.550;2023-03-19T02:57:06;99402.03;;;7.71;57.64
72855;BME280;60991;51.278;22.550;2023-03-19T02:58:36;99406.94;;;7.68;57.68
72855;BME280;60991;51.278;22.550;2023-03-19T03:00:07;99403.91;;;7.64;58.03
72855;BME280;60991;51.278;22.550;2023-03-19T03:01:38;99396.00;;;7.64;57.80
72855;BME280;60991;51.278;22.550;2023-03-19T03:03:08;99393.78;;;7.61;57.93
72855;BME280;60991;51.278;22.550;2023-03-19T03:04:38;99407.25;;;7.59;58.53
72855;BME280;60991;51.278;22.550;2023-03-19T03:06:08;99401.94;;;7.59;58.07
72855;BME280;60991;51.278;22.550;2023-03-19T03:07:39;99398.50;;;7.59;57.99
72855;BME280;60991;51.278;22.550;2023-03-19T03:09:10;99400.13;;;7.60;58.47
72855;BME280;60991;51.278;22.550;2023-03-19T03:10:41;99402.75;;;7.60;58.17
72855;BME280;60991;51.278;22.550;2023-03-19T03:12:11;99404.59;;;7.59;58.05
72855;BME280;60991;51.278;22.550;2023-03-19T03:13:41;99402.75;;;7.60;58.55
72855;BME280;60991;51.278;22.550;2023-03-19T03:15:11;99400.13;;;7.60;58.15
72855;BME280;60991;51.278;22.550;2023-03-19T03:16:41;99400.69;;;7.62;58.61
72855;BME280;60991;51.278;22.550;2023-03-19T03:18:12;99394.84;;;7.60;58.58
72855;BME280;60991;51.278;22.550;2023-03-19T03:19:42;99403.56;;;7.60;58.34
72855;BME280;60991;51.278;22.550;2023-03-19T03:21:12;99407.25;;;7.59;58.10
72855;BME280;60991;51.278;22.550;2023-03-19T03:22:43;99403.19;;;7.57;58.12
72855;BME280;60991;51.278;22.550;2023-03-19T03:24:13;99411.97;;;7.51;58.65
72855;BME280;60991;51.278;22.550;2023-03-19T03:25:43;99412.63;;;7.46;58.61
72855;BME280;60991;51.278;22.550;2023-03-19T03:27:14;99414.31;;;7.41;59.26
72855;BME280;60991;51.278;22.550;2023-03-19T03:28:44;99407.88;;;7.30;59.16
72855;BME280;60991;51.278;22.550;2023-03-19T03:30:14;99409.19;;;7.21;59.94
72855;BME280;60991;51.278;22.550;2023-03-19T03:31:44;99405.94;;;7.19;60.01
72855;BME280;60991;51.278;22.550;2023-03-19T03:33:15;99404.50;;;7.23;59.81
72855;BME280;60991;51.278;22.550;2023-03-19T03:34:45;99409.78;;;7.23;59.68
72855;BME280;60991;51.278;22.550;2023-03-19T03:36:15;99409.03;;;7.09;60.05
72855;BME280;60991;51.278;22.550;2023-03-19T03:37:45;99418.13;;;6.88;60.61
72855;BME280;60991;51.278;22.550;2023-03-19T03:39:15;99408.75;;;6.92;60.68
72855;BME280;60991;51.278;22.550;2023-03-19T03:40:49;99411.59;;;6.91;60.35
72855;BME280;60991;51.278;22.550;2023-03-19T03:42:19;99411.56;;;6.98;60.18
72855;BME280;60991;51.278;22.550;2023-03-19T03:43:49;99409.44;;;7.13;59.38
72855;BME280;60991;51.278;22.550;2023-03-19T03:45:20;99404.50;;;7.23;59.90
72855;BME280;60991;51.278;22.550;2023-03-19T03:46:50;99394.75;;;7.23;59.74
72855;BME280;60991;51.278;22.550;2023-03-19T03:48:20;99405.66;;;7.27;59.18
72855;BME280;60991;51.278;22.550;2023-03-19T03:49:50;99402.72;;;7.17;59.22
72855;BME280;60991;51.278;22.550;2023-03-19T03:51:21;99398.59;;;6.96;60.38
72855;BME280;60991;51.278;22.550;2023-03-19T03:52:51;99400.84;;;6.92;60.77
72855;BME280;60991;51.278;22.550;2023-03-19T03:54:21;99390.97;;;6.81;60.85
72855;BME280;60991;51.278;22.550;2023-03-19T03:55:51;99394.47;;;6.75;61.55
72855;BME280;60991;51.278;22.550;2023-03-19T03:57:21;99399.13;;;6.73;61.45
72855;BME280;60991;51.278;22.550;2023-03-19T03:58:52;99397.50;;;6.79;61.34
72855;BME280;60991;51.278;22.550;2023-03-19T04:00:22;99400.34;;;6.77;61.70
72855;BME280;60991;51.278;22.550;2023-03-19T04:01:53;99402.38;;;6.75;61.26
72855;BME280;60991;51.278;22.550;2023-03-19T04:03:23;99403.44;;;6.68;61.89
72855;BME280;60991;51.278;22.550;2023-03-19T04:04:53;99391.50;;;6.58;62.08
72855;BME280;60991;51.278;22.550;2023-03-19T04:06:25;99392.31;;;6.59;61.67
72855;BME280;60991;51.278;22.550;2023-03-19T04:07:56;99406.28;;;6.66;61.97
72855;BME280;60991;51.278;22.550;2023-03-19T04:09:26;99396.16;;;6.63;61.77
72855;BME280;60991;51.278;22.550;2023-03-19T04:10:56;99402.25;;;6.64;61.64
72855;BME280;60991;51.278;22.550;2023-03-19T04:12:27;99404.72;;;6.52;62.16
72855;BME280;60991;51.278;22.550;2023-03-19T04:13:57;99404.94;;;6.50;61.71
72855;BME280;60991;51.278;22.550;2023-03-19T04:15:27;99406.56;;;6.51;61.81
72855;BME280;60991;51.278;22.550;2023-03-19T04:16:57;99400.69;;;6.49;61.82
72855;BME280;60991;51.278;22.550;2023-03-19T04:18:27;99405.38;;;6.47;62.31
72855;BME280;60991;51.278;22.550;2023-03-19T04:19:58;99397.81;;;6.51;61.69
72855;BME280;60991;51.278;22.550;2023-03-19T04:21:28;99401.47;;;6.50;61.62
72855;BME280;60991;51.278;22.550;2023-03-19T04:22:58;99401.72;;;6.48;62.11
72855;BME280;60991;51.278;22.550;2023-03-19T04:24:28;99391.94;;;6.55;61.91
72855;BME280;60991;51.278;22.550;2023-03-19T04:26:01;99386.97;;;6.72;60.99
72855;BME280;60991;51.278;22.550;2023-03-19T04:27:32;99383.69;;;6.77;61.08
72855;BME280;60991;51.278;22.550;2023-03-19T04:29:02;99387.84;;;6.59;61.26
72855;BME280;60991;51.278;22.550;2023-03-19T04:30:32;99390.09;;;6.56;61.09
72855;BME280;60991;51.278;22.550;2023-03-19T04:32:03;99386.03;;;6.60;61.72
72855;BME280;60991;51.278;22.550;2023-03-19T04:33:34;99396.56;;;6.67;60.87
72855;BME280;60991;51.278;22.550;2023-03-19T04:35:04;99392.13;;;6.54;61.77
72855;BME280;60991;51.278;22.550;2023-03-19T04:36:35;99383.38;;;6.60;61.07
72855;BME280;60991;51.278;22.550;2023-03-19T04:38:05;99386.88;;;6.54;61.67
72855;BME280;60991;51.278;22.550;2023-03-19T04:39:36;99391.50;;;6.65;60.89
72855;BME280;60991;51.278;22.550;2023-03-19T04:41:07;99398.75;;;6.70;60.56
72855;BME280;60991;51.278;22.550;2023-03-19T04:42:37;99391.03;;;6.68;60.52
72855;BME280;60991;51.278;22.550;2023-03-19T04:44:07;99391.81;;;6.75;60.83
72855;BME280;60991;51.278;22.550;2023-03-19T04:45:37;99397.06;;;6.82;60.41
72855;BME280;60991;51.278;22.550;2023-03-19T04:47:08;99388.19;;;6.70;60.30
72855;BME280;60991;51.278;22.550;2023-03-19T04:48:38;99394.97;;;6.59;60.80
72855;BME280;60991;51.278;22.550;2023-03-19T04:50:09;99391.50;;;6.58;60.61
72855;BME280;60991;51.278;22.550;2023-03-19T04:51:39;99391.81;;;6.75;60.11
72855;BME280;60991;51.278;22.550;2023-03-19T04:53:09;99388.72;;;6.85;59.56
72855;BME280;60991;51.278;22.550;2023-03-19T04:54:40;99392.59;;;6.82;59.52
72855;BME280;60991;51.278;22.550;2023-03-19T04:56:10;99393.56;;;6.88;59.94
72855;BME280;60991;51.278;22.550;2023-03-19T04:57:40;99393.53;;;6.94;59.54
72855;BME280;60991;51.278;22.550;2023-03-19T04:59:10;99388.63;;;6.98;59.64
72855;BME280;60991;51.278;22.550;2023-03-19T05:00:40;99387.84;;;6.91;59.51
72855;BME280;60991;51.278;22.550;2023-03-19T05:02:11;99383.06;;;6.81;60.12
72855;BME280;60991;51.278;22.550;2023-03-19T05:03:41;99385.06;;;6.86;59.53
72855;BME280;60991;51.278;22.550;2023-03-19T05:05:11;99387.66;;;6.92;59.36
72855;BME280;60991;51.278;22.550;2023-03-19T05:06:42;99382.59;;;6.91;59.51
72855;BME280;60991;51.278;22.550;2023-03-19T05:08:12;99388.88;;;6.90;59.23
72855;BME280;60991;51.278;22.550;2023-03-19T05:09:42;99380.97;;;6.90;58.85
72855;BME280;60991;51.278;22.550;2023-03-19T05:11:12;99384.03;;;6.87;59.32
72855;BME280;60991;51.278;22.550;2023-03-19T05:12:43;99382.78;;;6.89;58.95
72855;BME280;60991;51.278;22.550;2023-03-19T05:14:13;99379.34;;;6.89;59.29
72855;BME280;60991;51.278;22.550;2023-03-19T05:15:44;99387.44;;;6.94;58.75
72855;BME280;60991;51.278;22.550;2023-03-19T05:17:14;99375.66;;;6.97;58.64
72855;BME280;60991;51.278;22.550;2023-03-19T05:18:44;99378.31;;;6.90;59.38
72855;BME280;60991;51.278;22.550;2023-03-19T05:20:15;99376.56;;;6.84;59.35
72855;BME280;60991;51.278;22.550;2023-03-19T05:21:45;99381.38;;;6.87;59.43
72855;BME280;60991;51.278;22.550;2023-03-19T05:23:15;99378.19;;;6.85;58.99
72855;BME280;60991;51.278;22.550;2023-03-19T05:24:46;99376.97;;;6.81;59.30
72855;BME280;60991;51.278;22.550;2023-03-19T05:26:16;99366.81;;;6.84;59.02
72855;BME280;60991;51.278;22.550;2023-03-19T05:27:46;99370.19;;;6.60;59.80
72855;BME280;60991;51.278;22.550;2023-03-19T05:29:16;99373.69;;;6.54;59.99
72855;BME280;60991;51.278;22.550;2023-03-19T05:30:46;99372.22;;;6.65;59.70
72855;BME280;60991;51.278;22.550;2023-03-19T05:32:17;99365.09;;;6.65;59.35
72855;BME280;60991;51.278;22.550;2023-03-19T05:33:47;99367.06;;;6.76;59.10
72855;BME280;60991;51.278;22.550;2023-03-19T05:35:17;99378.25;;;6.72;59.26
72855;BME280;60991;51.278;22.550;2023-03-19T05:36:48;99377.38;;;6.84;59.27
72855;BME280;60991;51.278;22.550;2023-03-19T05:38:18;99370.19;;;6.67;59.12
72855;BME280;60991;51.278;22.550;2023-03-19T05:39:50;99370.38;;;6.65;59.42
72855;BME280;60991;51.278;22.550;2023-03-19T05:41:20;99363.00;;;6.74;59.29
72855;BME280;60991;51.278;22.550;2023-03-19T05:42:50;99371.88;;;6.86;59.19
72855;BME280;60991;51.278;22.550;2023-03-19T05:44:21;99375.31;;;6.86;58.94
72855;BME280;60991;51.278;22.550;2023-03-19T05:45:51;99379.94;;;6.91;58.33
72855;BME280;60991;51.278;22.550;2023-03-19T05:47:21;99380.50;;;7.00;58.11
72855;BME280;60991;51.278;22.550;2023-03-19T05:48:51;99378.41;;;7.08;57.48
72855;BME280;60991;51.278;22.550;2023-03-19T05:50:22;99377.38;;;7.09;58.05
72855;BME280;60991;51.278;22.550;2023-03-19T05:51:52;99377.66;;;7.01;58.07
72855;BME280;60991;51.278;22.550;2023-03-19T05:53:22;99374.00;;;7.02;58.60
72855;BME280;60991;51.278;22.550;2023-03-19T05:54:52;99375.81;;;7.02;58.05
72855;BME280;60991;51.278;22.550;2023-03-19T05:56:22;99376.19;;;7.05;58.25
72855;BME280;60991;51.278;22.550;2023-03-19T05:57:53;99375.72;;;7.15;57.72
72855;BME280;60991;51.278;22.550;2023-03-19T05:59:23;99376.91;;;7.19;57.60
72855;BME280;60991;51.278;22.550;2023-03-19T06:00:56;99388.53;;;7.11;57.61
72855;BME280;60991;51.278;22.550;2023-03-19T06:02:26;99388.09;;;7.14;57.47
72855;BME280;60991;51.278;22.550;2023-03-19T06:03:57;99389.81;;;7.27;56.84
72855;BME280;60991;51.278;22.550;2023-03-19T06:05:27;99397.28;;;7.37;56.46
72855;BME280;60991;51.278;22.550;2023-03-19T06:06:57;99397.69;;;7.34;56.95
72855;BME280;60991;51.278;22.550;2023-03-19T06:08:27;99396.03;;;7.39;57.05
72855;BME280;60991;51.278;22.550;2023-03-19T06:09:57;99390.47;;;7.47;56.74
72855;BME280;60991;51.278;22.550;2023-03-19T06:11:28;99401.19;;;7.52;56.41
72855;BME280;60991;51.278;22.550;2023-03-19T06:12:58;99402.00;;;7.53;56.42
72855;BME280;60991;51.278;22.550;2023-03-19T06:14:28;99406.78;;;7.62;56.76
72855;BME280;60991;51.278;22.550;2023-03-19T06:15:59;99408.59;;;7.62;56.70
72855;BME280;60991;51.278;22.550;2023-03-19T06:17:29;99414.28;;;7.65;56.71
72855;BME280;60991;51.278;22.550;2023-03-19T06:18:59;99408.78;;;7.67;56.24
72855;BME280;60991;51.278;22.550;2023-03-19T06:20:30;99415.88;;;7.67;56.34
72855;BME280;60991;51.278;22.550;2023-03-19T06:22:00;99414.06;;;7.67;56.24
72855;BME280;60991;51.278;22.550;2023-03-19T06:23:31;99409.97;;;7.46;56.07
72855;BME280;60991;51.278;22.550;2023-03-19T06:25:01;99416.13;;;7.40;56.39
72855;BME280;60991;51.278;22.550;2023-03-19T06:26:31;99413.44;;;7.22;56.15
72855;BME280;60991;51.278;22.550;2023-03-19T06:28:02;99419.84;;;7.33;56.40
72855;BME280;60991;51.278;22.550;2023-03-19T06:29:32;99424.09;;;7.34;56.33
72855;BME280;60991;51.278;22.550;2023-03-19T06:31:03;99411.28;;;7.37;56.86
72855;BME280;60991;51.278;22.550;2023-03-19T06:32:34;99424.41;;;7.44;56.30
72855;BME280;60991;51.278;22.550;2023-03-19T06:34:04;99428.84;;;7.50;55.72
72855;BME280;60991;51.278;22.550;2023-03-19T06:35:34;99426.84;;;7.45;56.50
72855;BME280;60991;51.278;22.550;2023-03-19T06:37:04;99421.78;;;7.44;55.52
72855;BME280;60991;51.278;22.550;2023-03-19T06:38:35;99426.63;;;7.47;55.78
72855;BME280;60991;51.278;22.550;2023-03-19T06:40:05;99426.81;;;7.52;56.02
72855;BME280;60991;51.278;22.550;2023-03-19T06:41:36;99422.75;;;7.49;55.57
72855;BME280;60991;51.278;22.550;2023-03-19T06:43:06;99430.50;;;7.44;55.85
72855;BME280;60991;51.278;22.550;2023-03-19T06:44:36;99426.00;;;7.51;55.62
72855;BME280;60991;51.278;22.550;2023-03-19T06:46:07;99428.81;;;7.56;55.82
72855;BME280;60991;51.278;22.550;2023-03-19T06:47:39;99413.34;;;7.60;55.06
72855;BME280;60991;51.278;22.550;2023-03-19T06:49:10;99429.47;;;7.70;54.95
72855;BME280;60991;51.278;22.550;2023-03-19T06:50:40;99424.34;;;7.75;55.26
72855;BME280;60991;51.278;22.550;2023-03-19T06:52:10;99428.13;;;7.61;54.89
72855;BME280;60991;51.278;22.550;2023-03-19T06:53:40;99429.69;;;7.44;55.42
72855;BME280;60991;51.278;22.550;2023-03-19T06:55:11;99438.25;;;7.64;55.09
72855;BME280;60991;51.278;22.550;2023-03-19T06:56:41;99431.69;;;7.73;55.31
72855;BME280;60991;51.278;22.550;2023-03-19T06:58:11;99432.56;;;7.67;55.32
72855;BME280;60991;51.278;22.550;2023-03-19T06:59:42;99432.66;;;7.79;54.82
72855;BME280;60991;51.278;22.550;2023-03-19T07:01:12;99438.38;;;7.76;54.49
72855;BME280;60991;51.278;22.550;2023-03-19T07:02:42;99434.78;;;7.88;54.58
72855;BME280;60991;51.278;22.550;2023-03-19T07:04:12;99435.91;;;7.99;53.89
72855;BME280;60991;51.278;22.550;2023-03-19T07:05:43;99439.50;;;7.86;53.48
72855;BME280;60991;51.278;22.550;2023-03-19T07:07:13;99426.03;;;7.70;54.12
72855;BME280;60991;51.278;22.550;2023-03-19T07:08:43;99430.72;;;7.68;54.46
72855;BME280;60991;51.278;22.550;2023-03-19T07:10:17;99432.34;;;7.69;54.10
72855;BME280;60991;51.278;22.550;2023-03-19T07:11:47;99441.94;;;7.63;54.38
72855;BME280;60991;51.278;22.550;2023-03-19T07:13:17;99426.84;;;7.70;54.14
72855;BME280;60991;51.278;22.550;2023-03-19T07:14:48;99426.63;;;7.72;54.38
72855;BME280;60991;51.278;22.550;2023-03-19T07:16:18;99433.81;;;7.83;54.68
72855;BME280;60991;51.278;22.550;2023-03-19T07:17:48;99432.59;;;7.85;54.36
72855;BME280;60991;51.278;22.550;2023-03-19T07:19:18;99429.66;;;7.93;53.98
72855;BME280;60991;51.278;22.550;2023-03-19T07:20:48;99433.34;;;8.11;54.42
72855;BME280;60991;51.278;22.550;2023-03-19T07:22:19;99435.03;;;8.23;53.49
72855;BME280;60991;51.278;22.550;2023-03-19T07:23:49;99431.00;;;8.39;53.18
72855;BME280;60991;51.278;22.550;2023-03-19T07:25:20;99429.09;;;8.46;53.17
72855;BME280;60991;51.278;22.550;2023-03-19T07:26:50;99427.53;;;8.57;52.22
72855;BME280;60991;51.278;22.550;2023-03-19T07:28:20;99427.53;;;8.57;52.45
72855;BME280;60991;51.278;22.550;2023-03-19T07:29:50;99429.97;;;8.58;52.19
72855;BME280;60991;51.278;22.550;2023-03-19T07:31:21;99427.81;;;8.67;51.52
72855;BME280;60991;51.278;22.550;2023-03-19T07:32:51;99430.25;;;8.68;51.46
72855;BME280;60991;51.278;22.550;2023-03-19T07:34:21;99439.28;;;8.61;51.77
72855;BME280;60991;51.278;22.550;2023-03-19T07:35:52;99436.94;;;8.71;51.71
72855;BME280;60991;51.278;22.550;2023-03-19T07:37:22;99431.22;;;8.86;51.69
72855;BME280;60991;51.278;22.550;2023-03-19T07:38:52;99431.97;;;8.75;52.15
72855;BME280;60991;51.278;22.550;2023-03-19T07:40:22;99432.56;;;8.77;51.42
72855;BME280;60991;51.278;22.550;2023-03-19T07:41:53;99436.84;;;8.78;51.43
72855;BME280;60991;51.278;22.550;2023-03-19T07:43:23;99440.50;;;8.77;51.62
72855;BME280;60991;51.278;22.550;2023-03-19T07:44:53;99434.59;;;8.63;51.63
72855;BME280;60991;51.278;22.550;2023-03-19T07:46:23;99431.28;;;8.67;51.52
72855;BME280;60991;51.278;22.550;2023-03-19T07:47:54;99435.03;;;8.60;51.81
72855;BME280;60991;51.278;22.550;2023-03-19T07:49:24;99434.50;;;8.70;51.87
72855;BME280;60991;51.278;22.550;2023-03-19T07:50:55;99438.78;;;8.71;52.03
72855;BME280;60991;51.278;22.550;2023-03-19T07:52:25;99442.19;;;8.89;51.65
72855;BME280;60991;51.278;22.550;2023-03-19T07:53:56;99439.53;;;8.89;51.33
72855;BME280;60991;51.278;22.550;2023-03-19T07:55:26;99430.03;;;8.70;51.48
72855;BME280;60991;51.278;22.550;2023-03-19T07:56:56;99443.97;;;8.77;51.27
72855;BME280;60991;51.278;22.550;2023-03-19T07:58:26;99438.38;;;8.85;51.42
72855;BME280;60991;51.278;22.550;2023-03-19T07:59:56;99439.66;;;8.94;51.17
72855;BME280;60991;51.278;22.550;2023-03-19T08:01:27;99435.88;;;9.02;51.85
72855;BME280;60991;51.278;22.550;2023-03-19T08:02:57;99440.41;;;9.13;51.98
72855;BME280;60991;51.278;22.550;2023-03-19T08:04:27;99437.78;;;9.25;51.52